createdAt,value
2022-12-04T00:00:28.078Z,2.71
2022-12-04T00:02:54.831Z,2.68
2022-12-04T00:05:21.422Z,2.46
2022-12-04T00:07:48.125Z,2.51
2022-12-04T00:10:14.845Z,2.64
2022-12-04T00:12:41.398Z,2.67
2022-12-04T00:15:25.907Z,2.78
2022-12-04T00:17:53.162Z,2.74
2022-12-04T00:20:19.849Z,2.73
2022-12-04T00:22:46.390Z,2.62
2022-12-04T00:25:12.909Z,2.83
2022-12-04T00:27:39.491Z,2.69
2022-12-04T00:30:06.805Z,2.68
2022-12-04T00:32:34.619Z,2.67
2022-12-04T00:35:01.301Z,2.69
2022-12-04T00:37:28.212Z,2.78
2022-12-04T00:39:55.124Z,2.77
2022-12-04T00:42:22.521Z,2.83
2022-12-04T00:44:49.246Z,2.68
2022-12-04T00:47:15.819Z,2.71
2022-12-04T00:49:42.389Z,2.71
2022-12-04T00:52:09.038Z,2.84
2022-12-04T00:54:35.547Z,2.86
2022-12-04T00:57:02.566Z,2.54
2022-12-04T00:59:29.091Z,2.54
2022-12-04T01:01:55.605Z,2.63
2022-12-04T01:04:22.196Z,2.76
2022-12-04T01:06:48.754Z,2.88
2022-12-04T01:09:15.314Z,2.64
2022-12-04T01:11:41.942Z,2.68
2022-12-04T01:14:08.503Z,2.61
2022-12-04T01:16:39.017Z,2.60
2022-12-04T01:19:08.827Z,2.51
2022-12-04T01:21:36.762Z,2.52
2022-12-04T01:24:03.557Z,2.53
2022-12-04T01:26:30.365Z,2.72
2022-12-04T01:28:57.093Z,2.68
2022-12-04T01:31:24.033Z,2.82
2022-12-04T01:33:51.288Z,2.91
2022-12-04T01:36:27.946Z,2.90
2022-12-04T01:38:55.512Z,2.80
2022-12-04T01:41:25.963Z,2.77
2022-12-04T01:44:13.349Z,2.73
2022-12-04T01:46:41.847Z,2.88
2022-12-04T01:49:13.277Z,2.89
2022-12-04T01:51:44.136Z,2.79
2022-12-04T01:54:17.264Z,2.65
2022-12-04T01:56:51.989Z,2.73
2022-12-04T01:59:22.337Z,2.67
2022-12-04T02:01:59.367Z,2.74
2022-12-04T02:04:26.305Z,2.72
2022-12-04T02:06:52.948Z,2.66
2022-12-04T02:09:26.190Z,2.64
2022-12-04T02:12:12.662Z,2.75
2022-12-04T02:14:46.250Z,2.83
2022-12-04T02:17:33.230Z,2.70
2022-12-04T02:20:11.510Z,2.80
2022-12-04T02:23:14.152Z,2.74
2022-12-04T02:25:59.115Z,2.55
2022-12-04T02:28:57.534Z,2.51
2022-12-04T02:31:42.889Z,2.59
2022-12-04T02:34:15.308Z,2.68
2022-12-04T02:37:01.217Z,2.61
2022-12-04T02:39:50.119Z,2.52
2022-12-04T02:42:22.125Z,2.61
2022-12-04T02:45:04.350Z,2.64
2022-12-04T02:47:33.164Z,2.66
2022-12-04T02:50:03.128Z,2.69
2022-12-04T02:52:34.652Z,2.57
2022-12-04T02:55:20.085Z,2.54
2022-12-04T02:57:51.635Z,2.57
2022-12-04T03:00:19.527Z,2.67
2022-12-04T03:02:53.895Z,2.61
2022-12-04T03:05:27.713Z,2.48
2022-12-04T03:07:59.947Z,2.45
2022-12-04T03:10:34.387Z,2.54
2022-12-04T03:13:19.888Z,2.78
2022-12-04T03:16:01.601Z,2.73
2022-12-04T03:18:42.370Z,2.68
2022-12-04T03:21:20.164Z,2.80
2022-12-04T03:24:14.260Z,2.77
2022-12-04T03:26:45.742Z,2.68
2022-12-04T03:29:36.602Z,2.80
2022-12-04T03:32:18.294Z,2.77
2022-12-04T03:34:53.600Z,2.74
2022-12-04T03:37:23.708Z,2.79
2022-12-04T03:39:59.543Z,2.62
2022-12-04T03:42:51.495Z,2.66
2022-12-04T03:45:29.038Z,2.85
2022-12-04T03:48:23.382Z,2.96
2022-12-04T03:50:57.911Z,2.76
2022-12-04T03:53:39.275Z,2.92
2022-12-04T03:56:17.313Z,2.87
2022-12-04T03:58:48.624Z,2.89
2022-12-04T04:01:20.155Z,2.89
2022-12-04T04:03:50.674Z,2.89
2022-12-04T04:06:29.808Z,2.81
2022-12-04T04:09:01.019Z,2.88
2022-12-04T04:11:43.144Z,2.94
2022-12-04T04:14:34.502Z,2.83
2022-12-04T04:17:25.837Z,2.87
2022-12-04T04:20:17.953Z,2.94
2022-12-04T04:23:07.737Z,2.69
2022-12-04T04:25:38.395Z,2.64
2022-12-04T04:28:05.045Z,2.72
2022-12-04T04:30:34.033Z,2.78
2022-12-04T04:33:13.073Z,2.77
2022-12-04T04:35:52.810Z,2.76
2022-12-04T04:38:19.370Z,2.85
2022-12-04T04:41:04.456Z,2.83
2022-12-04T04:43:49.391Z,2.92
2022-12-04T04:46:25.090Z,2.80
2022-12-04T04:48:57.410Z,2.79
2022-12-04T04:51:25.570Z,2.67
2022-12-04T04:53:56.314Z,2.73
2022-12-04T04:56:22.920Z,2.71
2022-12-04T04:58:49.509Z,2.67
2022-12-04T05:01:19.753Z,2.72
2022-12-04T05:03:46.487Z,2.82
2022-12-04T05:06:13.307Z,2.79
2022-12-04T05:08:39.924Z,2.75
2022-12-04T05:11:06.847Z,2.86
2022-12-04T05:13:33.847Z,2.87
2022-12-04T05:16:02.999Z,2.80
2022-12-04T05:18:30.277Z,2.88
2022-12-04T05:20:57.374Z,2.98
2022-12-04T05:23:25.663Z,2.92
2022-12-04T05:26:02.126Z,2.78
2022-12-04T05:28:29.046Z,2.75
2022-12-04T05:31:01.448Z,2.58
2022-12-04T05:33:29.725Z,2.46
2022-12-04T05:36:01.285Z,2.47
2022-12-04T05:38:28.480Z,2.53
2022-12-04T05:40:55.020Z,2.57
2022-12-04T05:43:21.612Z,2.62
2022-12-04T05:45:48.202Z,2.76
2022-12-04T05:48:15.399Z,2.78
2022-12-04T05:50:42.325Z,2.81
2022-12-04T05:53:09.203Z,2.70
2022-12-04T05:55:35.909Z,2.68
2022-12-04T05:58:03.871Z,2.68
2022-12-04T06:00:31.023Z,2.74
2022-12-04T06:02:57.750Z,2.87
2022-12-04T06:05:24.295Z,2.73
2022-12-04T06:07:50.933Z,2.73
2022-12-04T06:10:17.538Z,2.51
2022-12-04T06:12:44.192Z,2.61
2022-12-04T06:15:10.913Z,2.63
2022-12-04T06:17:37.538Z,2.80
2022-12-04T06:20:10.955Z,2.69
2022-12-04T06:22:38.321Z,2.82
2022-12-04T06:25:05.374Z,2.79
2022-12-04T06:27:32.026Z,2.81
2022-12-04T06:29:59.149Z,2.82
2022-12-04T06:32:25.836Z,2.71
2022-12-04T06:34:54.156Z,2.80
2022-12-04T06:37:22.959Z,2.71
2022-12-04T06:39:49.503Z,2.52
2022-12-04T06:42:16.264Z,2.53
2022-12-04T06:44:42.801Z,2.41
2022-12-04T06:47:09.489Z,2.44
2022-12-04T06:49:36.244Z,2.54
2022-12-04T06:52:03.417Z,2.59
2022-12-04T06:54:29.980Z,2.71
2022-12-04T06:56:56.770Z,2.78
2022-12-04T06:59:23.768Z,2.82
2022-12-04T07:01:50.588Z,2.88
2022-12-04T07:04:17.330Z,2.88
2022-12-04T07:06:44.004Z,3.02
2022-12-04T07:09:15.615Z,3.02
2022-12-04T07:11:43.503Z,3.09
2022-12-04T07:14:11.543Z,2.94
2022-12-04T07:16:41.964Z,2.97
2022-12-04T07:19:13.557Z,2.72
2022-12-04T07:21:40.460Z,2.81
2022-12-04T07:24:07.134Z,2.77
2022-12-04T07:26:34.006Z,2.85
2022-12-04T07:29:00.615Z,2.90
2022-12-04T07:31:29.464Z,2.88
2022-12-04T07:33:57.232Z,2.77
2022-12-04T07:36:25.492Z,2.80
2022-12-04T07:38:52.493Z,2.93
2022-12-04T07:41:19.665Z,2.82
2022-12-04T07:43:46.938Z,2.79
2022-12-04T07:46:17.122Z,2.81
2022-12-04T07:48:44.109Z,2.86
2022-12-04T07:51:16.090Z,2.87
2022-12-04T07:53:43.362Z,2.80
2022-12-04T07:56:11.082Z,2.88
2022-12-04T07:58:38.084Z,2.83
2022-12-04T08:01:07.023Z,2.89
2022-12-04T08:03:33.679Z,2.85
2022-12-04T08:06:01.621Z,2.82
2022-12-04T08:08:28.557Z,2.89
2022-12-04T08:10:55.716Z,3.10
2022-12-04T08:13:22.384Z,3.26
2022-12-04T08:15:48.943Z,3.27
2022-12-04T08:18:15.641Z,3.17
2022-12-04T08:20:42.258Z,3.08
2022-12-04T08:23:08.986Z,2.90
2022-12-04T08:25:39.384Z,2.81
2022-12-04T08:28:06.978Z,2.72
2022-12-04T08:30:34.735Z,2.83
2022-12-04T08:33:01.965Z,2.93
2022-12-04T08:35:28.619Z,3.03
2022-12-04T08:37:55.516Z,3.13
2022-12-04T08:40:23.154Z,3.20
2022-12-04T08:42:49.944Z,2.98
2022-12-04T08:45:16.518Z,3.03
2022-12-04T08:47:45.845Z,2.88
2022-12-04T08:50:15.981Z,3.03
2022-12-04T08:52:42.498Z,3.00
2022-12-04T08:55:09.479Z,3.03
2022-12-04T08:57:35.975Z,3.12
2022-12-04T09:00:02.663Z,3.16
2022-12-04T09:02:29.224Z,3.07
2022-12-04T09:04:55.836Z,3.15
2022-12-04T09:07:22.459Z,3.14
2022-12-04T09:09:49.020Z,3.03
2022-12-04T09:12:15.554Z,2.96
2022-12-04T09:14:42.112Z,3.18
2022-12-04T09:17:08.575Z,3.25
2022-12-04T09:19:35.938Z,3.03
2022-12-04T09:22:03.164Z,3.15
2022-12-04T09:24:30.629Z,3.10
2022-12-04T09:26:58.476Z,3.16
2022-12-04T09:29:26.088Z,3.20
2022-12-04T09:31:52.801Z,3.02
2022-12-04T09:34:19.521Z,3.04
2022-12-04T09:36:46.362Z,3.17
2022-12-04T09:39:12.900Z,3.16
2022-12-04T09:41:55.467Z,3.27
2022-12-04T09:44:33.894Z,3.25
2022-12-04T09:47:26.413Z,3.34
2022-12-04T09:50:03.385Z,3.32
2022-12-04T09:52:49.692Z,3.27
2022-12-04T09:55:32.238Z,3.38
2022-12-04T09:58:02.622Z,3.23
2022-12-04T10:00:31.365Z,3.26
2022-12-04T10:03:07.603Z,3.31
2022-12-04T10:06:14.753Z,3.39
2022-12-04T10:08:45.318Z,3.41
2022-12-04T10:11:14.804Z,3.24
2022-12-04T10:14:03.335Z,3.23
2022-12-04T10:16:45.625Z,3.38
2022-12-04T10:19:41.985Z,3.41
2022-12-04T10:22:57.824Z,3.32
2022-12-04T10:25:26.741Z,3.48
2022-12-04T10:28:06.629Z,3.41
2022-12-04T10:30:36.766Z,3.50
2022-12-04T10:33:15.511Z,3.64
2022-12-04T10:35:45.610Z,3.72
2022-12-04T10:38:29.357Z,3.63
2022-12-04T10:41:03.132Z,3.59
2022-12-04T10:43:49.886Z,3.53
2022-12-04T10:46:27.282Z,3.66
2022-12-04T10:49:04.545Z,3.67
2022-12-04T10:51:39.482Z,3.62
2022-12-04T10:54:15.190Z,3.50
2022-12-04T10:57:01.402Z,3.56
2022-12-04T10:59:29.002Z,3.75
2022-12-04T11:02:19.286Z,3.62
2022-12-04T11:04:57.027Z,3.52
2022-12-04T11:07:30.117Z,3.62
2022-12-04T11:10:03.210Z,3.77
2022-12-04T11:12:31.070Z,3.78
2022-12-04T11:15:07.195Z,3.70
2022-12-04T11:17:34.196Z,3.64
2022-12-04T11:20:05.019Z,3.79
2022-12-04T11:22:32.277Z,3.83
2022-12-04T11:24:59.680Z,3.73
2022-12-04T11:27:34.149Z,3.59
2022-12-04T11:30:07.714Z,3.80
2022-12-04T11:32:35.420Z,3.86
2022-12-04T11:35:12.975Z,3.83
2022-12-04T11:37:45.218Z,3.89
2022-12-04T11:40:18.881Z,3.74
2022-12-04T11:42:59.440Z,3.68
2022-12-04T11:45:26.027Z,3.60
2022-12-04T11:47:58.995Z,3.65
2022-12-04T11:50:39.204Z,3.85
2022-12-04T11:53:15.045Z,3.73
2022-12-04T11:56:07.284Z,3.59
2022-12-04T11:58:55.256Z,3.72
2022-12-04T12:01:59.640Z,3.89
2022-12-04T12:04:36.933Z,3.84
2022-12-04T12:07:12.469Z,3.95
2022-12-04T12:09:59.840Z,4.02
2022-12-04T12:12:56.448Z,3.90
2022-12-04T12:15:56.297Z,3.93
2022-12-04T12:18:41.427Z,4.10
2022-12-04T12:21:21.505Z,3.95
2022-12-04T12:24:15.035Z,3.93
2022-12-04T12:26:55.734Z,3.88
2022-12-04T12:29:46.900Z,3.97
2022-12-04T12:32:43.557Z,3.94
2022-12-04T12:35:35.975Z,3.89
2022-12-04T12:38:09.973Z,3.81
2022-12-04T12:40:55.434Z,3.74
2022-12-04T12:43:24.752Z,3.85
2022-12-04T12:46:10.613Z,3.99
2022-12-04T12:49:17.956Z,4.09
2022-12-04T12:52:03.920Z,4.07
2022-12-04T12:54:39.563Z,3.98
2022-12-04T12:57:13.009Z,4.04
2022-12-04T12:59:46.650Z,3.90
2022-12-04T13:02:27.315Z,3.77
2022-12-04T13:04:58.770Z,4.00
2022-12-04T13:07:25.282Z,3.90
2022-12-04T13:10:03.543Z,3.86
2022-12-04T13:12:41.045Z,3.87
2022-12-04T13:15:14.446Z,3.81
2022-12-04T13:17:42.530Z,3.99
2022-12-04T13:20:18.052Z,4.00
2022-12-04T13:23:03.649Z,4.16
2022-12-04T13:25:57.426Z,4.03
2022-12-04T13:28:54.838Z,3.90
2022-12-04T13:31:41.295Z,4.05
2022-12-04T13:34:39.104Z,4.04
2022-12-04T13:37:27.485Z,4.00
2022-12-04T13:40:18.233Z,3.95
2022-12-04T13:42:44.918Z,4.13
2022-12-04T13:45:27.538Z,3.88
2022-12-04T13:48:00.050Z,3.90
2022-12-04T13:50:36.400Z,3.92
2022-12-04T13:53:04.070Z,4.05
2022-12-04T13:55:37.797Z,4.03
2022-12-04T13:58:10.232Z,4.10
2022-12-04T14:00:41.641Z,4.22
2022-12-04T14:03:25.576Z,4.06
2022-12-04T14:05:52.652Z,4.07
2022-12-04T14:08:22.567Z,4.14
2022-12-04T14:11:14.373Z,4.12
2022-12-04T14:13:50.789Z,4.14
2022-12-04T14:16:24.778Z,4.01
2022-12-04T14:19:26.572Z,4.04
2022-12-04T14:21:54.140Z,4.01
2022-12-04T14:24:37.822Z,4.01
2022-12-04T14:27:42.718Z,3.94
2022-12-04T14:30:39.163Z,3.96
2022-12-04T14:33:17.722Z,3.89
2022-12-04T14:35:49.574Z,4.02
2022-12-04T14:38:22.206Z,3.90
2022-12-04T14:40:58.858Z,3.92
2022-12-04T14:43:30.785Z,3.86
2022-12-04T14:46:30.623Z,3.93
2022-12-04T14:49:13.196Z,4.04
2022-12-04T14:52:23.661Z,4.07
2022-12-04T14:55:07.274Z,4.00
2022-12-04T14:57:46.299Z,3.83
2022-12-04T15:00:19.028Z,3.74
2022-12-04T15:02:47.917Z,3.71
2022-12-04T15:05:31.738Z,3.64
2022-12-04T15:08:05.561Z,3.69
2022-12-04T15:10:53.769Z,3.74
2022-12-04T15:13:30.585Z,3.74
2022-12-04T15:15:57.462Z,3.85
2022-12-04T15:18:24.201Z,3.89
2022-12-04T15:20:53.829Z,3.76
2022-12-04T15:23:26.419Z,3.79
2022-12-04T15:25:55.606Z,3.76
2022-12-04T15:28:28.157Z,3.82
2022-12-04T15:30:57.591Z,3.89
2022-12-04T15:33:29.099Z,3.87
2022-12-04T15:36:01.835Z,3.91
2022-12-04T15:38:28.789Z,3.91
2022-12-04T15:40:58.309Z,3.93
2022-12-04T15:43:40.268Z,3.86
2022-12-04T15:46:24.879Z,3.89
2022-12-04T15:48:51.582Z,3.87
2022-12-04T15:51:21.305Z,3.93
2022-12-04T15:53:48.225Z,4.01
2022-12-04T15:56:21.462Z,3.97
2022-12-04T15:58:58.320Z,4.00
2022-12-04T16:01:26.258Z,4.09
2022-12-04T16:03:55.508Z,4.06
2022-12-04T16:06:23.504Z,4.13
2022-12-04T16:08:54.824Z,4.02
2022-12-04T16:11:28.251Z,3.97
2022-12-04T16:14:12.900Z,3.92
2022-12-04T16:16:43.509Z,3.78
2022-12-04T16:19:33.553Z,3.85
2022-12-04T16:22:09.455Z,3.87
2022-12-04T16:24:36.138Z,3.75
2022-12-04T16:27:05.959Z,3.83
2022-12-04T16:29:32.709Z,3.76
2022-12-04T16:32:03.071Z,3.87
2022-12-04T16:34:31.027Z,3.90
2022-12-04T16:36:57.645Z,3.95
2022-12-04T16:39:24.198Z,3.87
2022-12-04T16:41:50.766Z,4.01
2022-12-04T16:44:18.264Z,3.91
2022-12-04T16:46:44.982Z,3.89
2022-12-04T16:49:12.873Z,3.88
2022-12-04T16:51:46.352Z,3.84
2022-12-04T16:54:13.689Z,3.89
2022-12-04T16:56:40.632Z,3.83
2022-12-04T16:59:11.919Z,3.89
2022-12-04T17:01:43.937Z,3.97
2022-12-04T17:04:10.754Z,3.83
2022-12-04T17:06:37.338Z,3.79
2022-12-04T17:09:04.700Z,3.76
2022-12-04T17:11:31.569Z,3.91
2022-12-04T17:13:58.388Z,3.99
2022-12-04T17:16:25.340Z,3.95
2022-12-04T17:18:52.215Z,3.75
2022-12-04T17:21:18.894Z,3.71
2022-12-04T17:23:45.536Z,4.00
2022-12-04T17:26:14.582Z,3.91
2022-12-04T17:28:41.526Z,3.78
2022-12-04T17:31:17.587Z,3.87
2022-12-04T17:33:45.432Z,3.87
2022-12-04T17:36:17.279Z,3.70
2022-12-04T17:38:44.476Z,3.69
2022-12-04T17:41:16.042Z,3.66
2022-12-04T17:43:43.844Z,3.74
2022-12-04T17:46:15.908Z,3.53
2022-12-04T17:48:42.562Z,3.63
2022-12-04T17:51:19.249Z,3.67
2022-12-04T17:53:46.959Z,3.70
2022-12-04T17:56:17.370Z,3.57
2022-12-04T17:58:45.653Z,3.59
2022-12-04T18:01:26.680Z,3.45
2022-12-04T18:03:56.438Z,3.55
2022-12-04T18:06:34.897Z,3.59
2022-12-04T18:09:02.277Z,3.66
2022-12-04T18:11:30.671Z,3.59
2022-12-04T18:14:11.459Z,3.62
2022-12-04T18:16:42.127Z,3.52
2022-12-04T18:19:08.898Z,3.51
2022-12-04T18:21:35.973Z,3.48
2022-12-04T18:24:04.365Z,3.33
2022-12-04T18:26:37.010Z,3.46
2022-12-04T18:29:04.727Z,3.43
2022-12-04T18:31:31.731Z,3.50
2022-12-04T18:33:58.467Z,3.35
2022-12-04T18:36:29.067Z,3.41
2022-12-04T18:38:58.083Z,3.57
2022-12-04T18:41:26.569Z,3.70
2022-12-04T18:43:53.656Z,3.51
2022-12-04T18:46:21.248Z,3.54
2022-12-04T18:48:49.745Z,3.57
2022-12-04T18:51:23.087Z,3.65
2022-12-04T18:53:51.790Z,3.62
2022-12-04T18:56:19.020Z,3.75
2022-12-04T18:58:46.651Z,3.70
2022-12-04T19:01:18.857Z,3.65
2022-12-04T19:03:47.045Z,3.62
2022-12-04T19:06:14.010Z,3.62
2022-12-04T19:08:43.180Z,3.67
2022-12-04T19:11:13.842Z,3.48
2022-12-04T19:13:41.188Z,3.60
2022-12-04T19:16:15.966Z,3.68
2022-12-04T19:18:45.270Z,3.80
2022-12-04T19:21:14.108Z,3.89
2022-12-04T19:23:42.578Z,3.87
2022-12-04T19:26:09.162Z,3.58
2022-12-04T19:28:36.369Z,3.56
2022-12-04T19:31:03.568Z,3.67
2022-12-04T19:33:30.505Z,3.76
2022-12-04T19:36:05.001Z,3.84
2022-12-04T19:38:33.670Z,3.73
2022-12-04T19:41:14.687Z,3.87
2022-12-04T19:43:44.037Z,3.82
2022-12-04T19:46:13.164Z,3.97
2022-12-04T19:48:40.342Z,3.87
2022-12-04T19:51:10.458Z,3.86
2022-12-04T19:53:40.844Z,3.86
2022-12-04T19:56:11.458Z,3.74
2022-12-04T19:58:38.201Z,3.72
2022-12-04T20:01:07.112Z,3.65
2022-12-04T20:03:35.242Z,3.66
2022-12-04T20:06:07.229Z,3.80
2022-12-04T20:08:34.667Z,3.74
2022-12-04T20:11:02.999Z,3.72
2022-12-04T20:13:29.635Z,3.80
2022-12-04T20:16:00.323Z,3.96
2022-12-04T20:18:27.029Z,3.79
2022-12-04T20:20:58.766Z,3.72
2022-12-04T20:23:25.845Z,3.70
2022-12-04T20:25:52.509Z,3.76
2022-12-04T20:28:19.950Z,3.89
2022-12-04T20:30:46.989Z,3.80
2022-12-04T20:33:13.675Z,3.91
2022-12-04T20:35:40.368Z,3.96
2022-12-04T20:38:07.135Z,4.04
2022-12-04T20:40:34.347Z,4.05
2022-12-04T20:43:00.903Z,3.93
2022-12-04T20:45:27.545Z,4.05
2022-12-04T20:47:55.009Z,4.04
2022-12-04T20:50:21.722Z,3.92
2022-12-04T20:52:48.546Z,3.88
2022-12-04T20:55:15.201Z,4.09
2022-12-04T20:57:41.843Z,4.10
2022-12-04T21:00:09.006Z,4.18
2022-12-04T21:02:36.110Z,4.14
2022-12-04T21:05:02.691Z,4.10
2022-12-04T21:07:30.071Z,4.04
2022-12-04T21:09:58.745Z,4.04
2022-12-04T21:12:55.093Z,4.07
2022-12-04T21:15:40.244Z,3.93
2022-12-04T21:18:06.914Z,3.86
2022-12-04T21:20:33.461Z,3.98
2022-12-04T21:23:00.015Z,3.87
2022-12-04T21:25:27.639Z,3.89
2022-12-04T21:27:54.824Z,3.80
2022-12-04T21:30:21.365Z,3.86
2022-12-04T21:32:47.960Z,3.72
2022-12-04T21:35:14.526Z,3.81
2022-12-04T21:37:41.340Z,3.68
2022-12-04T21:40:08.600Z,3.74
2022-12-04T21:42:35.381Z,3.78
2022-12-04T21:45:04.163Z,3.82
2022-12-04T21:47:31.229Z,3.84
2022-12-04T21:49:58.265Z,3.73
2022-12-04T21:52:25.051Z,3.69
2022-12-04T21:54:53.085Z,3.67
2022-12-04T21:57:20.544Z,3.62
2022-12-04T21:59:47.334Z,3.79
2022-12-04T22:02:15.345Z,3.86
2022-12-04T22:04:42.667Z,3.89
2022-12-04T22:07:09.932Z,3.81
2022-12-04T22:09:37.390Z,3.89
2022-12-04T22:12:26.298Z,3.87
2022-12-04T22:14:51.096Z,4.04
2022-12-04T22:17:17.897Z,3.99
2022-12-04T22:19:44.513Z,4.12
2022-12-04T22:22:11.158Z,4.04
2022-12-04T22:24:37.755Z,3.99
2022-12-04T22:27:04.339Z,4.09
2022-12-04T22:32:18.685Z,4.03
2022-12-04T22:34:48.519Z,4.10
2022-12-04T22:37:15.165Z,3.96
2022-12-04T22:39:41.682Z,4.01
2022-12-04T22:42:08.261Z,4.02
2022-12-04T22:44:34.856Z,4.00
2022-12-04T22:47:01.648Z,4.17
2022-12-04T22:49:28.529Z,3.99
2022-12-04T22:51:55.221Z,4.01
2022-12-04T22:54:21.877Z,3.96
2022-12-04T22:56:48.462Z,3.96
2022-12-04T22:59:15.039Z,4.19
2022-12-04T23:01:41.668Z,4.19
2022-12-04T23:04:09.644Z,4.29
2022-12-04T23:06:36.204Z,4.12
2022-12-04T23:09:11.237Z,4.10
2022-12-04T23:11:39.406Z,4.18
2022-12-04T23:14:08.637Z,4.08
2022-12-04T23:16:37.332Z,4.28
2022-12-04T23:19:05.732Z,4.38
2022-12-04T23:21:32.674Z,4.29
2022-12-04T23:23:59.796Z,4.18
2022-12-04T23:26:32.428Z,4.24
2022-12-04T23:28:59.869Z,4.25
2022-12-04T23:31:26.489Z,4.34
2022-12-04T23:33:53.069Z,4.35
2022-12-04T23:36:20.063Z,4.38
2022-12-04T23:38:47.344Z,4.40
2022-12-04T23:41:18.228Z,4.36
2022-12-04T23:43:45.803Z,4.54
2022-12-04T23:46:16.274Z,4.46
2022-12-04T23:48:44.716Z,4.25
2022-12-04T23:51:13.708Z,4.11
2022-12-04T23:53:40.374Z,4.10
2022-12-04T23:56:10.935Z,4.20
2022-12-04T23:58:38.399Z,4.13
